Belle Isle, Florida
Current Conditions -  °F | °C
As of 8:53 PM on Friday 24 Oct 2014 (Local Time) from KMCO Reporting Station
Scattered Clouds Scattered Clouds  
Wind Chill: 70°   Ceiling: Unl
Heat Index: 70°   Visibility: 10mi
Dew Point: 57°   Wind: 7mph
Humidity: 63%   Direction: 30°NNE
Pressure: 29.95"   Gusts: NA
Location:  28.4861°N, 81.3274°W
Report Text: KMCO 250053Z 03006KT 10SM SCT043 SCT250 21/14 A2995 RMK AO2 SLP140 T02110139 $
Loading
Personal Weather Stations






























Interactive Weather Map
Tropical Storm Tracking
New forecast layout! Learn more

10-Day Weather Forecast

Advertisements
Track Severe Weather on mobile